createdAt,value
2018-09-29T00:00:34.418Z,7.80
2018-09-29T00:03:02.030Z,7.70
2018-09-29T00:05:29.575Z,7.60
2018-09-29T00:07:57.205Z,7.70
2018-09-29T00:10:24.741Z,7.60
2018-09-29T00:12:52.795Z,7.50
2018-09-29T00:15:20.353Z,7.40
2018-09-29T00:17:47.921Z,7.50
2018-09-29T00:20:15.485Z,7.50
2018-09-29T00:22:43.009Z,7.40
2018-09-29T00:25:10.563Z,7.40
2018-09-29T00:27:38.245Z,7.30
2018-09-29T00:30:05.833Z,7.30
2018-09-29T00:32:33.442Z,7.20
2018-09-29T00:35:01.045Z,7.20
2018-09-29T00:37:31.369Z,7.20
2018-09-29T00:39:58.944Z,7.10
2018-09-29T00:42:26.513Z,7.10
2018-09-29T00:44:54.085Z,7.20
2018-09-29T00:47:21.650Z,7.20
2018-09-29T00:49:49.202Z,7.10
2018-09-29T00:52:17.878Z,7.00
2018-09-29T00:54:45.861Z,7.10
2018-09-29T00:57:13.415Z,7.00
2018-09-29T00:59:40.981Z,7.00
2018-09-29T01:02:08.833Z,6.90
2018-09-29T01:04:36.581Z,7.00
2018-09-29T01:07:04.104Z,7.00
2018-09-29T01:09:32.777Z,6.90
2018-09-29T01:12:00.353Z,6.90
2018-09-29T01:14:27.977Z,6.80
2018-09-29T01:16:55.513Z,6.80
2018-09-29T01:19:23.312Z,6.80
2018-09-29T01:21:50.889Z,6.80
2018-09-29T01:24:18.490Z,6.70
2018-09-29T01:26:46.032Z,6.60
2018-09-29T01:29:13.584Z,6.60
2018-09-29T01:31:41.320Z,6.60
2018-09-29T01:34:09.201Z,6.60
2018-09-29T01:36:36.958Z,6.50
2018-09-29T01:39:06.788Z,6.40
2018-09-29T01:41:34.306Z,6.40
2018-09-29T01:44:01.854Z,6.40
2018-09-29T01:46:29.381Z,6.40
2018-09-29T01:48:57.912Z,6.40
2018-09-29T01:51:25.448Z,6.40
2018-09-29T01:53:53.024Z,6.30
2018-09-29T01:56:20.585Z,6.30
2018-09-29T01:58:48.164Z,6.30
2018-09-29T02:01:15.742Z,6.20
2018-09-29T02:03:43.282Z,6.20
2018-09-29T02:06:11.105Z,6.20
2018-09-29T02:08:38.659Z,6.20
2018-09-29T02:11:06.202Z,6.10
2018-09-29T02:13:33.865Z,6.00
2018-09-29T02:16:01.423Z,6.00
2018-09-29T02:18:28.952Z,5.90
2018-09-29T02:20:56.662Z,5.90
2018-09-29T02:23:24.201Z,5.80
2018-09-29T02:25:52.663Z,5.90
2018-09-29T02:28:20.244Z,5.90
2018-09-29T02:30:47.806Z,5.80
2018-09-29T02:33:15.473Z,5.70
2018-09-29T02:35:43.518Z,5.70
2018-09-29T02:38:11.162Z,5.70
2018-09-29T02:40:38.705Z,5.70
2018-09-29T02:43:06.378Z,5.70
2018-09-29T02:45:34.561Z,5.60
2018-09-29T02:48:02.102Z,5.60
2018-09-29T02:50:29.805Z,5.70
2018-09-29T02:52:57.549Z,5.70
2018-09-29T02:55:25.106Z,5.60
2018-09-29T02:57:52.707Z,5.70
2018-09-29T03:00:20.230Z,5.60
2018-09-29T03:02:47.854Z,5.50
2018-09-29T03:05:15.413Z,5.50
2018-09-29T03:07:43.049Z,5.40
2018-09-29T03:10:10.671Z,5.40
2018-09-29T03:12:38.230Z,5.30
2018-09-29T03:15:05.842Z,5.30
2018-09-29T03:17:33.490Z,5.30
2018-09-29T03:20:01.098Z,5.30
2018-09-29T03:22:28.857Z,5.30
2018-09-29T03:24:56.413Z,5.40
2018-09-29T03:27:24.001Z,5.30
2018-09-29T03:29:51.573Z,5.40
2018-09-29T03:32:19.140Z,5.40
2018-09-29T03:34:46.681Z,5.30
2018-09-29T03:37:14.232Z,5.20
2018-09-29T03:39:41.783Z,5.20
2018-09-29T03:42:09.560Z,5.20
2018-09-29T03:44:37.215Z,5.20
2018-09-29T03:47:05.093Z,5.30
2018-09-29T03:49:32.641Z,5.20
2018-09-29T03:52:00.236Z,5.10
2018-09-29T03:54:42.448Z,5.10
2018-09-29T03:57:10.006Z,5.00
2018-09-29T03:59:37.605Z,5.00
2018-09-29T04:02:05.279Z,4.90
2018-09-29T04:04:33.313Z,4.90
2018-09-29T04:07:01.016Z,4.80
2018-09-29T04:09:28.554Z,4.90
2018-09-29T04:11:56.225Z,4.80
2018-09-29T04:14:23.742Z,4.80
2018-09-29T04:16:51.393Z,4.90
2018-09-29T04:19:18.957Z,4.90
2018-09-29T04:21:47.478Z,4.80
2018-09-29T04:24:15.921Z,4.80
2018-09-29T04:26:43.818Z,4.80
2018-09-29T04:29:12.167Z,4.90
2018-09-29T04:31:40.361Z,4.90
2018-09-29T04:34:08.426Z,4.80
2018-09-29T04:36:35.981Z,4.80
2018-09-29T04:39:05.448Z,4.80
2018-09-29T04:41:33.121Z,4.70
2018-09-29T04:44:00.635Z,4.80
2018-09-29T04:46:28.183Z,4.70
2018-09-29T04:48:55.754Z,4.70
2018-09-29T04:51:23.317Z,4.80
2018-09-29T04:53:50.878Z,4.80
2018-09-29T04:56:18.437Z,4.70
2018-09-29T04:58:46.059Z,4.70
2018-09-29T05:01:13.657Z,4.70
2018-09-29T05:03:41.473Z,4.70
2018-09-29T05:06:09.006Z,4.60
2018-09-29T05:08:37.058Z,4.60
2018-09-29T05:11:05.087Z,4.60
2018-09-29T05:13:33.221Z,4.60
2018-09-29T05:16:02.369Z,4.50
2018-09-29T05:18:31.432Z,4.50
2018-09-29T05:21:00.924Z,4.50
2018-09-29T05:23:32.131Z,4.50
2018-09-29T05:26:01.898Z,4.50
2018-09-29T05:28:31.095Z,4.50
2018-09-29T05:31:00.591Z,4.50
2018-09-29T05:33:29.915Z,4.50
2018-09-29T05:35:58.597Z,4.40
2018-09-29T05:38:27.209Z,4.50
2018-09-29T05:40:56.180Z,4.50
2018-09-29T05:43:25.202Z,4.50
2018-09-29T05:45:53.898Z,4.50
2018-09-29T05:48:21.609Z,4.50
2018-09-29T05:50:49.085Z,4.60
2018-09-29T05:53:17.172Z,4.60
2018-09-29T05:55:44.713Z,4.60
2018-09-29T05:58:12.362Z,4.60
2018-09-29T06:00:40.677Z,4.60
2018-09-29T06:03:08.579Z,4.70
2018-09-29T06:05:36.308Z,4.80
2018-09-29T06:08:03.818Z,4.90
2018-09-29T06:10:31.365Z,4.90
2018-09-29T06:15:24.053Z,5.00
2018-09-29T06:17:51.625Z,4.80
2018-09-29T06:20:19.178Z,4.90
2018-09-29T06:22:46.813Z,5.10
2018-09-29T06:25:14.390Z,5.10
2018-09-29T06:27:42.486Z,5.20
2018-09-29T06:30:10.082Z,5.20
2018-09-29T06:32:37.635Z,5.30
2018-09-29T06:35:05.625Z,5.30
2018-09-29T06:37:33.216Z,5.20
2018-09-29T06:40:00.801Z,5.20
2018-09-29T06:42:28.365Z,5.20
2018-09-29T06:44:55.913Z,5.20
2018-09-29T06:47:23.474Z,5.40
2018-09-29T06:49:51.322Z,5.40
2018-09-29T06:52:19.213Z,5.50
2018-09-29T06:54:46.861Z,5.50
2018-09-29T06:57:14.385Z,5.60
2018-09-29T06:59:41.959Z,5.80
2018-09-29T07:02:09.510Z,5.80
2018-09-29T07:04:37.814Z,6.00
2018-09-29T07:07:05.931Z,6.00
2018-09-29T07:09:34.489Z,6.10
2018-09-29T07:12:02.155Z,6.20
2018-09-29T07:14:30.120Z,6.20
2018-09-29T07:16:57.649Z,6.30
2018-09-29T07:19:26.417Z,6.40
2018-09-29T07:21:54.126Z,6.50
2018-09-29T07:24:23.481Z,6.60
2018-09-29T07:26:51.021Z,6.70
2018-09-29T07:29:18.687Z,6.80
2018-09-29T07:31:46.547Z,6.90
2018-09-29T07:34:14.127Z,7.10
2018-09-29T07:36:41.665Z,7.20
2018-09-29T07:39:10.185Z,7.40
2018-09-29T07:41:37.844Z,7.50
2018-09-29T07:44:05.505Z,7.60
2018-09-29T07:46:33.069Z,7.60
2018-09-29T07:49:00.676Z,7.70
2018-09-29T07:51:28.522Z,7.80
2018-09-29T07:53:56.887Z,8.00
2018-09-29T07:56:24.501Z,8.10
2018-09-29T07:58:52.029Z,8.50
2018-09-29T08:01:20.103Z,8.60
2018-09-29T08:03:47.841Z,8.70
2018-09-29T08:06:15.737Z,8.70
2018-09-29T08:08:44.508Z,8.80
2018-09-29T08:11:12.522Z,8.80
2018-09-29T08:13:40.177Z,9.10
2018-09-29T08:16:07.897Z,9.20
2018-09-29T08:18:36.031Z,9.30
2018-09-29T08:21:03.624Z,9.50
2018-09-29T08:23:32.097Z,9.60
2018-09-29T08:26:00.530Z,9.70
2018-09-29T08:28:28.206Z,9.70
2018-09-29T08:30:58.010Z,9.90
2018-09-29T08:33:25.641Z,10.00
2018-09-29T08:35:53.545Z,10.00
2018-09-29T08:38:21.616Z,9.90
2018-09-29T08:40:49.508Z,10.00
2018-09-29T08:43:17.327Z,10.40
2018-09-29T08:45:44.917Z,10.40
2018-09-29T08:48:12.496Z,10.60
2018-09-29T08:50:42.401Z,10.70
2018-09-29T08:53:09.983Z,10.70
2018-09-29T08:55:38.281Z,10.90
2018-09-29T08:58:05.885Z,10.90
2018-09-29T09:00:33.569Z,11.10
2018-09-29T09:03:01.173Z,11.20
2018-09-29T09:05:29.145Z,11.20
2018-09-29T09:07:56.774Z,11.30
2018-09-29T09:10:24.353Z,11.50
2018-09-29T09:12:52.325Z,11.50
2018-09-29T09:15:19.921Z,11.60
2018-09-29T09:17:47.643Z,11.80
2018-09-29T09:20:15.205Z,11.90
2018-09-29T09:22:42.841Z,12.00
2018-09-29T09:25:10.381Z,12.10
2018-09-29T09:27:37.944Z,12.10
2018-09-29T09:30:05.620Z,12.30
2018-09-29T09:32:33.785Z,12.40
2018-09-29T09:35:01.369Z,12.40
2018-09-29T09:37:28.991Z,12.40
2018-09-29T09:39:56.601Z,12.50
2018-09-29T09:42:24.693Z,12.50
2018-09-29T09:44:52.344Z,12.50
2018-09-29T09:47:19.937Z,12.60
2018-09-29T09:49:47.981Z,12.70
2018-09-29T09:52:15.571Z,12.70
2018-09-29T09:54:43.300Z,12.70
2018-09-29T09:57:10.910Z,12.80
2018-09-29T09:59:38.958Z,12.80
2018-09-29T10:02:12.190Z,12.90
2018-09-29T10:04:39.753Z,13.00
2018-09-29T10:07:07.649Z,13.10
2018-09-29T10:09:36.721Z,13.10
2018-09-29T10:12:04.607Z,13.10
2018-09-29T10:14:32.384Z,13.10
2018-09-29T10:16:59.962Z,13.10
2018-09-29T10:19:27.566Z,13.20
2018-09-29T10:21:55.681Z,13.20
2018-09-29T10:24:23.241Z,13.30
2018-09-29T10:26:51.872Z,13.30
2018-09-29T10:29:19.706Z,13.40
2018-09-29T10:31:47.301Z,13.40
2018-09-29T10:34:14.856Z,13.40
2018-09-29T10:36:42.619Z,13.40
2018-09-29T10:39:11.673Z,13.60
2018-09-29T10:41:39.601Z,13.80
2018-09-29T10:44:07.287Z,14.00
2018-09-29T10:46:34.889Z,14.00
2018-09-29T10:49:02.761Z,14.00
2018-09-29T10:51:30.337Z,13.90
2018-09-29T10:53:59.574Z,13.90
2018-09-29T10:56:27.141Z,14.10
2018-09-29T10:58:55.028Z,14.00
2018-09-29T11:01:22.602Z,14.20
2018-09-29T11:03:50.191Z,14.30
2018-09-29T11:06:17.916Z,14.40
2018-09-29T11:08:45.477Z,14.40
2018-09-29T11:11:13.593Z,14.40
2018-09-29T11:13:41.186Z,14.40
2018-09-29T11:16:10.653Z,14.40
2018-09-29T11:18:40.737Z,14.50
2018-09-29T11:21:09.450Z,14.70
2018-09-29T11:23:37.029Z,14.70
2018-09-29T11:26:05.182Z,14.70
2018-09-29T11:28:32.758Z,14.60
2018-09-29T11:31:00.445Z,14.90
2018-09-29T11:33:28.054Z,15.10
2018-09-29T11:35:57.051Z,15.30
2018-09-29T11:38:25.728Z,15.40
2018-09-29T11:40:54.253Z,15.30
2018-09-29T11:43:23.961Z,15.20
2018-09-29T11:45:52.272Z,15.20
2018-09-29T11:48:32.701Z,15.50
2018-09-29T11:51:00.334Z,15.70
2018-09-29T11:53:29.116Z,15.60
2018-09-29T11:55:56.844Z,15.50
2018-09-29T11:58:24.472Z,15.60
2018-09-29T12:00:52.213Z,15.80
2018-09-29T12:03:19.794Z,16.20
2018-09-29T12:05:47.484Z,16.40
2018-09-29T12:08:15.054Z,16.40
2018-09-29T12:10:42.689Z,16.60
2018-09-29T12:13:10.253Z,16.70
2018-09-29T12:15:37.925Z,16.70
2018-09-29T12:18:05.864Z,16.60
2018-09-29T12:20:33.527Z,16.50
2018-09-29T12:23:01.143Z,16.50
2018-09-29T12:25:28.789Z,16.60
2018-09-29T12:27:56.397Z,16.70
2018-09-29T12:30:24.034Z,17.00
2018-09-29T12:32:51.663Z,17.10
2018-09-29T12:35:19.256Z,16.90
2018-09-29T12:37:47.016Z,17.00
2018-09-29T12:40:14.570Z,17.20
2018-09-29T12:42:42.143Z,17.20
2018-09-29T12:45:09.725Z,17.30
2018-09-29T12:47:37.296Z,17.30
2018-09-29T12:50:05.079Z,17.30
2018-09-29T12:52:32.698Z,17.30
2018-09-29T12:55:00.385Z,17.30
2018-09-29T12:57:27.966Z,17.50
2018-09-29T12:59:55.549Z,17.60
2018-09-29T13:02:23.225Z,17.80
2018-09-29T13:04:50.817Z,17.60
2018-09-29T13:07:18.392Z,17.60
2018-09-29T13:09:46.005Z,18.10
2018-09-29T13:12:13.553Z,18.40
2018-09-29T13:14:41.201Z,18.60
2018-09-29T13:17:08.765Z,18.70
2018-09-29T13:19:36.386Z,18.90
2018-09-29T13:22:04.293Z,19.00
2018-09-29T13:24:31.959Z,19.10
2018-09-29T13:26:59.813Z,19.10
2018-09-29T13:29:29.182Z,18.70
2018-09-29T13:31:56.884Z,18.60
2018-09-29T13:34:24.422Z,18.50
2018-09-29T13:36:52.039Z,18.80
2018-09-29T13:39:19.636Z,19.00
2018-09-29T13:41:47.961Z,19.30
2018-09-29T13:44:15.606Z,19.50
2018-09-29T13:46:43.168Z,19.60
2018-09-29T13:49:10.917Z,19.40
2018-09-29T13:51:38.577Z,19.60
2018-09-29T13:54:06.152Z,19.60
2018-09-29T13:56:33.771Z,19.90
2018-09-29T13:59:01.628Z,20.30
2018-09-29T14:01:29.177Z,20.20
2018-09-29T14:03:56.869Z,20.30
2018-09-29T14:06:24.497Z,21.00
2018-09-29T14:08:52.049Z,21.80
2018-09-29T14:11:21.002Z,23.10
2018-09-29T14:13:48.548Z,24.70
2018-09-29T14:16:16.149Z,26.40
2018-09-29T14:18:43.743Z,28.10
2018-09-29T14:21:11.477Z,29.70
2018-09-29T14:23:39.237Z,30.50
2018-09-29T14:26:07.793Z,31.50
2018-09-29T14:28:35.464Z,31.30
2018-09-29T14:31:03.269Z,31.30
2018-09-29T14:33:31.291Z,30.90
2018-09-29T14:35:58.897Z,31.10
2018-09-29T14:38:26.796Z,31.10
2018-09-29T14:40:54.382Z,31.30
2018-09-29T14:43:21.957Z,30.80
2018-09-29T14:45:49.549Z,31.80
2018-09-29T14:48:17.114Z,30.80
2018-09-29T14:50:44.769Z,31.10
2018-09-29T14:53:12.374Z,30.90
2018-09-29T14:55:39.921Z,31.70
2018-09-29T14:58:07.558Z,31.90
2018-09-29T15:00:35.141Z,31.20
2018-09-29T15:03:02.929Z,32.10
2018-09-29T15:05:30.504Z,32.00
2018-09-29T15:07:58.128Z,32.40
2018-09-29T15:10:25.746Z,32.90
2018-09-29T15:12:53.397Z,32.60
2018-09-29T15:15:20.969Z,31.50
2018-09-29T15:17:48.644Z,31.20
2018-09-29T15:20:16.229Z,31.50
2018-09-29T15:22:44.073Z,30.70
2018-09-29T15:25:11.822Z,30.90
2018-09-29T15:27:39.632Z,30.30
2018-09-29T15:30:07.371Z,31.50
2018-09-29T15:32:35.237Z,30.60
2018-09-29T15:35:02.937Z,30.20
2018-09-29T15:37:30.586Z,30.00
2018-09-29T15:39:58.462Z,29.80
2018-09-29T15:42:26.807Z,30.40
2018-09-29T15:44:54.615Z,30.70
2018-09-29T15:47:30.181Z,31.00
2018-09-29T15:49:57.873Z,29.70
2018-09-29T15:52:25.491Z,29.70
2018-09-29T15:54:53.243Z,29.80
2018-09-29T15:57:38.786Z,29.40
2018-09-29T16:00:07.466Z,30.20
2018-09-29T16:02:35.151Z,29.50
2018-09-29T16:05:02.758Z,29.40
2018-09-29T16:07:30.373Z,28.80
2018-09-29T16:09:58.508Z,28.90
2018-09-29T16:12:26.148Z,28.80
2018-09-29T16:14:53.728Z,28.70
2018-09-29T16:17:22.316Z,28.70
2018-09-29T16:19:51.713Z,28.60
2018-09-29T16:22:22.631Z,27.60
2018-09-29T16:24:56.121Z,26.10
2018-09-29T16:27:27.613Z,25.10
2018-09-29T16:29:58.833Z,24.90
2018-09-29T16:32:26.414Z,24.70
2018-09-29T16:34:53.965Z,24.40
2018-09-29T16:37:21.561Z,24.30
2018-09-29T16:39:49.344Z,23.30
2018-09-29T16:42:16.945Z,21.70
2018-09-29T16:44:44.529Z,20.30
2018-09-29T16:47:12.093Z,19.10
2018-09-29T16:49:39.738Z,18.40
2018-09-29T16:52:07.898Z,17.60
2018-09-29T16:54:35.469Z,17.00
2018-09-29T16:57:03.685Z,16.60
2018-09-29T17:02:00.808Z,15.70
2018-09-29T17:04:30.359Z,15.40
2018-09-29T17:06:58.240Z,15.00
2018-09-29T17:09:25.958Z,14.70
2018-09-29T17:11:53.819Z,14.40
2018-09-29T17:14:30.193Z,14.30
2018-09-29T17:17:10.127Z,14.30
2018-09-29T17:19:51.905Z,14.00
2018-09-29T17:22:29.933Z,13.90
2018-09-29T17:25:06.953Z,13.70
2018-09-29T17:27:36.448Z,13.30
2018-09-29T17:30:05.107Z,13.10
2018-09-29T17:32:34.746Z,13.00
2018-09-29T17:35:02.325Z,12.90
2018-09-29T17:37:29.921Z,12.80
2018-09-29T17:39:57.525Z,12.70
2018-09-29T17:42:25.082Z,12.60
2018-09-29T17:44:52.811Z,12.60
2018-09-29T17:47:20.557Z,12.50
2018-09-29T17:49:48.153Z,12.40
2018-09-29T17:52:16.198Z,12.30
2018-09-29T17:54:44.039Z,12.30
2018-09-29T17:57:13.350Z,12.20
2018-09-29T17:59:41.814Z,12.10
2018-09-29T18:02:09.402Z,12.20
2018-09-29T18:04:37.430Z,12.00
2018-09-29T18:07:05.482Z,11.90
2018-09-29T18:09:33.071Z,11.90
2018-09-29T18:12:01.560Z,11.80
2018-09-29T18:14:29.240Z,11.70
2018-09-29T18:16:57.683Z,11.60
2018-09-29T18:19:25.309Z,11.50
2018-09-29T18:21:52.886Z,11.50
2018-09-29T18:24:21.045Z,11.50
2018-09-29T18:26:52.070Z,11.40
2018-09-29T18:29:20.833Z,11.40
2018-09-29T18:31:50.221Z,11.20
2018-09-29T18:34:19.565Z,11.10
2018-09-29T18:36:47.770Z,11.00
2018-09-29T18:39:15.414Z,11.00
2018-09-29T18:41:43.134Z,11.00
2018-09-29T18:44:12.567Z,11.00
2018-09-29T18:46:41.166Z,10.90
2018-09-29T18:49:09.831Z,10.70
2018-09-29T18:51:38.409Z,10.70
2018-09-29T18:54:06.085Z,10.60
2018-09-29T18:56:33.814Z,10.60
2018-09-29T18:59:02.480Z,10.60
2018-09-29T19:01:35.268Z,10.50
2018-09-29T19:04:02.857Z,10.50
2018-09-29T19:06:31.272Z,10.40
2018-09-29T19:08:59.569Z,10.40
2018-09-29T19:11:28.581Z,10.40
2018-09-29T19:13:56.385Z,10.40
2018-09-29T19:16:24.006Z,10.30
2018-09-29T19:18:51.571Z,10.30
2018-09-29T19:21:19.182Z,10.30
2018-09-29T19:23:46.757Z,10.20
2018-09-29T19:26:14.859Z,10.20
2018-09-29T19:28:42.401Z,10.20
2018-09-29T19:31:09.987Z,10.20
2018-09-29T19:33:37.590Z,10.10
2018-09-29T19:36:05.277Z,10.10
2018-09-29T19:38:37.129Z,10.00
2018-09-29T19:41:04.730Z,9.90
2018-09-29T19:43:32.502Z,9.80
2018-09-29T19:46:01.413Z,9.80
2018-09-29T19:48:29.017Z,9.80
2018-09-29T19:50:57.106Z,9.70
2018-09-29T19:53:25.005Z,9.70
2018-09-29T19:55:52.616Z,9.60
2018-09-29T19:58:20.202Z,9.60
2018-09-29T20:00:47.846Z,9.50
2018-09-29T20:03:15.969Z,9.50
2018-09-29T20:05:43.560Z,9.50
2018-09-29T20:08:11.133Z,9.50
2018-09-29T20:10:38.722Z,9.30
2018-09-29T20:13:06.353Z,9.30
2018-09-29T20:15:33.938Z,9.30
2018-09-29T20:18:01.718Z,9.30
2018-09-29T20:20:29.338Z,9.20
2018-09-29T20:22:56.970Z,9.20
2018-09-29T20:25:24.593Z,9.20
2018-09-29T20:27:52.173Z,9.10
2018-09-29T20:30:20.158Z,9.10
2018-09-29T20:32:48.025Z,9.00
2018-09-29T20:35:15.601Z,8.90
2018-09-29T20:37:43.192Z,8.80
2018-09-29T20:40:10.817Z,8.80
2018-09-29T20:42:39.056Z,8.80
2018-09-29T20:45:06.691Z,8.70
2018-09-29T20:47:35.977Z,8.90
2018-09-29T20:50:03.653Z,8.90
2018-09-29T20:52:31.255Z,8.70
2018-09-29T20:54:58.804Z,8.60
2018-09-29T20:57:26.401Z,8.60
2018-09-29T20:59:53.973Z,8.60
2018-09-29T21:02:21.783Z,8.50
2018-09-29T21:04:49.341Z,8.50
2018-09-29T21:07:17.225Z,8.60
2018-09-29T21:09:45.169Z,8.50
2018-09-29T21:12:13.010Z,8.50
2018-09-29T21:14:40.594Z,8.40
2018-09-29T21:17:08.322Z,8.40
2018-09-29T21:19:35.869Z,8.40
2018-09-29T21:22:04.221Z,8.20
2018-09-29T21:24:32.281Z,8.20
2018-09-29T21:26:59.881Z,8.20
2018-09-29T21:29:27.451Z,8.20
2018-09-29T21:31:55.301Z,8.20
2018-09-29T21:34:23.036Z,8.20
2018-09-29T21:36:50.681Z,8.20
2018-09-29T21:39:18.282Z,8.20
2018-09-29T21:41:45.890Z,8.10
2018-09-29T21:44:13.467Z,8.10
2018-09-29T21:46:41.050Z,8.10
2018-09-29T21:49:08.609Z,8.10
2018-09-29T21:51:36.177Z,8.10
2018-09-29T21:54:34.440Z,8.00
2018-09-29T21:57:02.006Z,8.00
2018-09-29T21:59:29.865Z,8.00
2018-09-29T22:01:57.425Z,8.00
2018-09-29T22:04:25.936Z,8.10
2018-09-29T22:06:54.085Z,8.00
2018-09-29T22:09:22.504Z,8.10
2018-09-29T22:11:50.522Z,8.10
2018-09-29T22:14:18.090Z,8.00
2018-09-29T22:16:45.661Z,8.00
2018-09-29T22:19:13.364Z,7.90
2018-09-29T22:21:40.906Z,7.90
2018-09-29T22:24:08.709Z,7.80
2018-09-29T22:26:36.281Z,7.80
2018-09-29T22:29:03.937Z,7.70
2018-09-29T22:31:31.488Z,7.70
2018-09-29T22:33:59.047Z,7.70
2018-09-29T22:36:26.737Z,7.70
2018-09-29T22:38:54.289Z,7.70
2018-09-29T22:41:21.882Z,7.70
2018-09-29T22:43:49.461Z,7.70
2018-09-29T22:46:17.016Z,7.60
2018-09-29T22:48:44.628Z,7.60
2018-09-29T22:51:12.436Z,7.60
2018-09-29T22:53:40.005Z,7.50
2018-09-29T22:56:11.342Z,7.50
2018-09-29T22:58:38.921Z,7.50
2018-09-29T23:01:07.726Z,7.50
2018-09-29T23:03:35.297Z,7.50
2018-09-29T23:06:03.241Z,7.50
2018-09-29T23:08:30.822Z,7.50
2018-09-29T23:10:58.401Z,7.40
2018-09-29T23:13:25.973Z,7.40
2018-09-29T23:15:53.561Z,7.40
2018-09-29T23:18:21.121Z,7.40
2018-09-29T23:20:48.973Z,7.40
2018-09-29T23:23:16.537Z,7.40
2018-09-29T23:25:44.143Z,7.40
2018-09-29T23:28:11.697Z,7.30
2018-09-29T23:30:39.266Z,7.20
2018-09-29T23:33:06.820Z,7.30
2018-09-29T23:35:34.388Z,7.20
2018-09-29T23:38:01.945Z,7.20
2018-09-29T23:40:29.528Z,7.10
2018-09-29T23:42:57.089Z,7.10
2018-09-29T23:45:25.914Z,7.00
2018-09-29T23:47:53.481Z,7.00
2018-09-29T23:50:21.660Z,7.00
2018-09-29T23:52:49.218Z,6.90
2018-09-29T23:55:16.798Z,6.80
2018-09-29T23:57:44.381Z,6.80
